Time;durP1;ratioP1;P1;durP2;ratioP2;P2;SDS_P1;SDS_P2;PMS_P1;PMS_P2;Temp;Humidity;BMP_temperature;BMP_pressure;BME280_temperature;BME280_humidity;BME280_pressure;Samples;Min_cycle;Max_cycle;Signal;HPM_P1;HPM_P2
2024/02/13 00:01:58;;;;;;;2.67;2.30;;;;;;;;;;6247605;23;20203;-80
2024/02/13 00:04:26;;;;;;;2.90;2.27;;;;;;;;;;6247957;23;20161;-80
2024/02/13 00:06:59;;;;;;;2.60;2.33;;;;;;;;;;6221220;23;20215;-80
2024/02/13 00:09:26;;;;;;;2.70;2.47;;;;;;;;;;6220851;23;20176;-80
2024/02/13 00:11:55;;;;;;;2.17;1.97;;;;;;;;;;6247131;23;20165;-80
2024/02/13 00:14:34;;;;;;;2.57;2.13;;;;;;;;;;6248155;23;20207;-80
2024/02/13 00:17:04;;;;;;;2.60;2.40;;;;;;;;;;6247167;23;20171;-80
2024/02/13 00:19:32;;;;;;;2.40;2.13;;;;;;;;;;6247274;23;20172;-80
2024/02/13 00:21:59;;;;;;;2.90;2.40;;;;;;;;;;6246830;23;20211;-79
2024/02/13 00:24:28;;;;;;;3.17;2.53;;;;;;;;;;6246966;23;20165;-80
2024/02/13 00:26:55;;;;;;;2.80;2.50;;;;;;;;;;6247087;23;20189;-79
2024/02/13 00:29:21;;;;;;;2.90;2.60;;;;;;;;;;6220709;23;20240;-80
2024/02/13 00:31:50;;;;;;;3.93;2.60;;;;;;;;;;6246861;23;20172;-80
2024/02/13 00:34:19;;;;;;;2.73;2.50;;;;;;;;;;6246893;23;20161;-80
2024/02/13 00:36:48;;;;;;;3.13;2.63;;;;;;;;;;6220216;23;20243;-79
2024/02/13 00:39:16;;;;;;;3.30;3.00;;;;;;;;;;6246779;23;20226;-80
2024/02/13 00:41:46;;;;;;;2.90;2.60;;;;;;;;;;6247362;22;20153;-80
2024/02/13 00:44:13;;;;;;;2.90;2.50;;;;;;;;;;6220679;23;20161;-80
2024/02/13 00:46:41;;;;;;;3.43;2.70;;;;;;;;;;6220017;23;20592;-79
2024/02/13 00:49:08;;;;;;;3.40;3.10;;;;;;;;;;6221076;23;20164;-80
2024/02/13 00:51:36;;;;;;;2.60;2.33;;;;;;;;;;6246870;23;20161;-80
2024/02/13 00:54:13;;;;;;;2.97;2.57;;;;;;;;;;6246527;23;20244;-80
2024/02/13 00:56:41;;;;;;;3.63;2.70;;;;;;;;;;6219852;23;20247;-80
2024/02/13 00:59:09;;;;;;;4.23;2.93;;;;;;;;;;6246575;23;20239;-80
2024/02/13 01:01:36;;;;;;;2.90;2.53;;;;;;;;;;6246177;23;20192;-80
2024/02/13 01:04:06;;;;;;;3.80;3.20;;;;;;;;;;6246339;23;20195;-79
2024/02/13 01:06:33;;;;;;;3.70;2.93;;;;;;;;;;6246149;23;20255;-80
2024/02/13 01:09:05;;;;;;;3.43;3.13;;;;;;;;;;6246233;23;20248;-79
2024/02/13 01:11:33;;;;;;;3.53;3.10;;;;;;;;;;6246061;23;20176;-79
2024/02/13 01:14:01;;;;;;;4.10;3.23;;;;;;;;;;6219440;23;20626;-80
2024/02/13 01:16:29;;;;;;;3.50;2.97;;;;;;;;;;6219197;23;20169;-79
2024/02/13 01:19:06;;;;;;;3.80;3.27;;;;;;;;;;6246112;23;20176;-80
2024/02/13 01:21:37;;;;;;;3.50;3.20;;;;;;;;;;6219215;23;20160;-79
2024/02/13 01:24:07;;;;;;;3.27;2.97;;;;;;;;;;6195251;23;20169;-80
2024/02/13 01:26:37;;;;;;;3.00;2.70;;;;;;;;;;6219460;23;20169;-79
2024/02/13 01:29:05;;;;;;;3.87;3.03;;;;;;;;;;6246311;23;20171;-80
2024/02/13 01:31:32;;;;;;;3.50;3.20;;;;;;;;;;6246448;23;20176;-80
2024/02/13 01:34:00;;;;;;;3.50;3.20;;;;;;;;;;6246467;23;20227;-80
2024/02/13 01:36:27;;;;;;;5.13;3.07;;;;;;;;;;6245922;23;20192;-80
2024/02/13 01:38:58;;;;;;;3.83;3.00;;;;;;;;;;6246251;23;20635;-80
2024/02/13 01:41:25;;;;;;;3.77;3.37;;;;;;;;;;6246329;23;20153;-80
2024/02/13 01:43:53;;;;;;;3.40;3.10;;;;;;;;;;6220053;23;20215;-80
2024/02/13 01:46:20;;;;;;;3.13;2.83;;;;;;;;;;6246415;23;20165;-80
2024/02/13 01:48:47;;;;;;;3.50;3.20;;;;;;;;;;6220007;23;20620;-80
2024/02/13 01:51:15;;;;;;;5.00;3.50;;;;;;;;;;6248322;23;20240;-80
2024/02/13 01:53:44;;;;;;;3.57;3.27;;;;;;;;;;6248349;23;20161;-80
2024/02/13 01:56:12;;;;;;;4.00;3.37;;;;;;;;;;6247915;23;20607;-79
2024/02/13 01:58:40;;;;;;;4.03;3.30;;;;;;;;;;6247821;23;20161;-79
2024/02/13 02:01:10;;;;;;;3.57;3.07;;;;;;;;;;6221574;23;20193;-79
2024/02/13 02:04:03;;;;;;;3.83;3.40;;;;;;;;;;6248151;23;20150;-80
2024/02/13 02:06:30;;;;;;;4.00;3.43;;;;;;;;;;6248136;23;20195;-80
2024/02/13 02:09:01;;;;;;;3.63;3.33;;;;;;;;;;6248276;23;20165;-80
2024/02/13 02:11:30;;;;;;;3.30;3.00;;;;;;;;;;6248692;23;20153;-79
2024/02/13 02:14:00;;;;;;;3.77;3.23;;;;;;;;;;6248796;23;20246;-80
2024/02/13 02:16:30;;;;;;;3.80;3.40;;;;;;;;;;6248307;23;20165;-80
2024/02/13 02:18:56;;;;;;;4.53;3.40;;;;;;;;;;6248516;23;20191;-80
2024/02/13 02:21:23;;;;;;;4.13;3.73;;;;;;;;;;6248562;23;20165;-80
2024/02/13 02:23:50;;;;;;;3.80;3.47;;;;;;;;;;6248565;23;20157;-80
2024/02/13 02:26:23;;;;;;;4.07;3.60;;;;;;;;;;6248595;23;20161;-80
2024/02/13 02:28:51;;;;;;;4.63;3.60;;;;;;;;;;6248850;23;20165;-80
2024/02/13 02:31:18;;;;;;;3.60;3.30;;;;;;;;;;6248277;23;20165;-80
2024/02/13 02:33:46;;;;;;;3.70;3.30;;;;;;;;;;6248428;23;20165;-80
2024/02/13 02:36:14;;;;;;;4.83;3.93;;;;;;;;;;6222833;23;20213;-80
2024/02/13 02:38:42;;;;;;;5.20;3.67;;;;;;;;;;6221324;23;20257;-80
2024/02/13 02:41:09;;;;;;;4.20;3.50;;;;;;;;;;6222047;23;20652;-80
2024/02/13 02:43:42;;;;;;;4.00;3.70;;;;;;;;;;6248324;23;20199;-80
2024/02/13 02:46:12;;;;;;;3.93;3.57;;;;;;;;;;6249686;23;20169;-80
2024/02/13 02:48:41;;;;;;;3.70;3.40;;;;;;;;;;6248626;23;20245;-79
2024/02/13 02:51:09;;;;;;;3.93;3.57;;;;;;;;;;6248846;23;20172;-80
2024/02/13 02:53:35;;;;;;;4.00;3.60;;;;;;;;;;6248114;23;20157;-80
2024/02/13 02:56:02;;;;;;;4.23;3.43;;;;;;;;;;6248748;23;20288;-80
2024/02/13 02:58:28;;;;;;;3.90;3.60;;;;;;;;;;6235942;23;20662;-80
2024/02/13 03:01:01;;;;;;;3.90;3.50;;;;;;;;;;6247873;23;20280;-79
2024/02/13 03:03:28;;;;;;;4.20;3.90;;;;;;;;;;6248905;23;20615;-80
2024/02/13 03:05:56;;;;;;;4.80;4.40;;;;;;;;;;6249093;23;20218;-80
2024/02/13 03:08:31;;;;;;;4.40;4.00;;;;;;;;;;6248792;23;20148;-80
2024/02/13 03:11:10;;;;;;;4.80;4.30;;;;;;;;;;6248762;23;20172;-80
2024/02/13 03:13:40;;;;;;;5.97;4.10;;;;;;;;;;6248986;23;20165;-80
2024/02/13 03:16:12;;;;;;;4.67;4.27;;;;;;;;;;6248758;23;20165;-80
2024/02/13 03:18:41;;;;;;;5.00;4.10;;;;;;;;;;6248638;23;20169;-80
2024/02/13 03:21:11;;;;;;;4.67;4.27;;;;;;;;;;6248746;23;20236;-80
2024/02/13 03:23:41;;;;;;;4.10;3.70;;;;;;;;;;6248193;23;20241;-80
2024/02/13 03:26:08;;;;;;;4.77;3.83;;;;;;;;;;6247476;23;20173;-80
2024/02/13 03:28:36;;;;;;;4.47;4.07;;;;;;;;;;6247860;23;20161;-80
2024/02/13 03:31:04;;;;;;;5.10;4.10;;;;;;;;;;6248204;23;20168;-80
2024/02/13 03:33:34;;;;;;;4.90;4.07;;;;;;;;;;6222154;23;20210;-80
2024/02/13 03:36:03;;;;;;;4.23;3.83;;;;;;;;;;6222121;23;20166;-80
2024/02/13 03:38:32;;;;;;;4.20;3.80;;;;;;;;;;6247958;23;20162;-80
2024/02/13 03:41:02;;;;;;;4.23;3.83;;;;;;;;;;6248252;23;20181;-80
2024/02/13 03:43:29;;;;;;;4.93;4.20;;;;;;;;;;6248190;23;20161;-80
2024/02/13 03:46:05;;;;;;;4.40;4.00;;;;;;;;;;6248595;23;20172;-80
2024/02/13 03:48:32;;;;;;;4.13;3.73;;;;;;;;;;6248500;23;20165;-80
2024/02/13 03:51:02;;;;;;;4.37;3.90;;;;;;;;;;6221794;23;20176;-79
2024/02/13 03:53:29;;;;;;;4.47;4.07;;;;;;;;;;6248065;23;20170;-80
2024/02/13 03:55:56;;;;;;;5.30;4.20;;;;;;;;;;6221781;23;20169;-80
2024/02/13 03:58:24;;;;;;;4.83;4.23;;;;;;;;;;6248732;23;20174;-80
2024/02/13 04:00:50;;;;;;;4.33;3.93;;;;;;;;;;6248439;22;20181;-79
2024/02/13 04:03:19;;;;;;;4.67;4.27;;;;;;;;;;6248721;23;20205;-80
2024/02/13 04:05:51;;;;;;;5.57;4.67;;;;;;;;;;6223819;23;20149;-80
2024/02/13 04:08:18;;;;;;;4.70;4.20;;;;;;;;;;6248870;23;20161;-80
2024/02/13 04:10:47;;;;;;;4.67;4.27;;;;;;;;;;6249317;23;20206;-80
2024/02/13 04:13:17;;;;;;;4.67;4.20;;;;;;;;;;6248478;23;20227;-80
2024/02/13 04:15:51;;;;;;;4.80;4.40;;;;;;;;;;6248465;23;20191;-79
2024/02/13 04:18:22;;;;;;;5.07;4.67;;;;;;;;;;6248495;23;20175;-80
2024/02/13 04:20:54;;;;;;;4.97;4.47;;;;;;;;;;6248325;23;20173;-80
2024/02/13 04:23:30;;;;;;;4.90;4.33;;;;;;;;;;6249251;23;20240;-80
2024/02/13 04:25:59;;;;;;;5.20;4.70;;;;;;;;;;6221565;23;20600;-80
2024/02/13 04:28:28;;;;;;;4.73;4.33;;;;;;;;;;6247865;23;20183;-80
2024/02/13 04:30:56;;;;;;;5.20;4.70;;;;;;;;;;6248194;23;20153;-80
2024/02/13 04:33:23;;;;;;;5.13;4.43;;;;;;;;;;6221886;23;20164;-79
2024/02/13 04:35:50;;;;;;;5.27;4.83;;;;;;;;;;6222350;23;20171;-80
2024/02/13 04:38:21;;;;;;;5.77;5.20;;;;;;;;;;6248311;23;20172;-80
2024/02/13 04:40:49;;;;;;;5.37;4.97;;;;;;;;;;6248609;23;20173;-79
2024/02/13 04:43:18;;;;;;;5.63;5.03;;;;;;;;;;6221905;23;20165;-80
2024/02/13 04:45:46;;;;;;;5.17;4.77;;;;;;;;;;6198766;23;20228;-80
2024/02/13 04:48:18;;;;;;;5.40;4.93;;;;;;;;;;6249951;23;20153;-80
2024/02/13 04:50:46;;;;;;;5.60;5.10;;;;;;;;;;6250096;23;20231;-80
2024/02/13 04:53:15;;;;;;;5.17;4.77;;;;;;;;;;6224205;23;20169;-80
2024/02/13 04:55:50;;;;;;;5.03;4.63;;;;;;;;;;6223475;23;20244;-80
2024/02/13 04:58:20;;;;;;;5.30;4.80;;;;;;;;;;6248603;23;20151;-80
2024/02/13 05:01:01;;;;;;;5.10;4.70;;;;;;;;;;6247213;22;20700;-80
2024/02/13 05:07:19;;;;;;;5.27;4.83;;;;;;;;;;6249514;23;20223;-80
2024/02/13 05:09:27;;;;;;;5.10;4.60;;;;;;;;;;6247592;23;20169;-80
2024/02/13 05:11:57;;;;;;;5.13;4.63;;;;;;;;;;6248152;23;20144;-80
2024/02/13 05:14:30;;;;;;;5.10;4.60;;;;;;;;;;6246865;23;20212;-80
2024/02/13 05:17:01;;;;;;;4.70;4.33;;;;;;;;;;6220555;23;20173;-80
2024/02/13 05:19:38;;;;;;;5.53;5.03;;;;;;;;;;6220700;23;20169;-80
2024/02/13 05:22:05;;;;;;;4.90;4.50;;;;;;;;;;6248048;23;20153;-80
2024/02/13 05:24:35;;;;;;;5.07;4.57;;;;;;;;;;6223054;23;20173;-80
2024/02/13 05:27:08;;;;;;;6.17;4.97;;;;;;;;;;6251196;23;20161;-79
2024/02/13 05:29:43;;;;;;;5.10;4.70;;;;;;;;;;6250422;23;20218;-80
2024/02/13 05:32:14;;;;;;;4.93;4.47;;;;;;;;;;6250140;23;20149;-80
2024/02/13 05:34:47;;;;;;;5.30;4.80;;;;;;;;;;6250610;23;20169;-80
2024/02/13 05:37:14;;;;;;;4.97;4.57;;;;;;;;;;6223996;23;20163;-80
2024/02/13 05:39:43;;;;;;;4.90;4.50;;;;;;;;;;6249959;23;20164;-80
2024/02/13 05:42:13;;;;;;;5.43;4.93;;;;;;;;;;6224733;23;20197;-80
2024/02/13 05:44:40;;;;;;;5.77;4.90;;;;;;;;;;6249847;23;20165;-80
2024/02/13 05:47:09;;;;;;;5.83;4.80;;;;;;;;;;6224135;23;20157;-80
2024/02/13 05:49:39;;;;;;;4.90;4.50;;;;;;;;;;6250188;23;20242;-80
2024/02/13 05:52:06;;;;;;;4.67;4.20;;;;;;;;;;6249961;23;20161;-80
2024/02/13 05:54:35;;;;;;;4.80;4.40;;;;;;;;;;6220658;23;20184;-80
2024/02/13 05:57:05;;;;;;;4.50;4.10;;;;;;;;;;6249888;23;20165;-79
2024/02/13 05:59:32;;;;;;;4.30;4.00;;;;;;;;;;6223089;23;20169;-80
2024/02/13 06:02:00;;;;;;;4.50;4.10;;;;;;;;;;6197613;23;20209;-79
2024/02/13 06:04:27;;;;;;;4.87;4.00;;;;;;;;;;6249879;23;20161;-80
2024/02/13 06:06:55;;;;;;;4.43;4.03;;;;;;;;;;6250020;23;20167;-80
2024/02/13 06:09:29;;;;;;;4.70;4.30;;;;;;;;;;6248838;23;20203;-80
2024/02/13 06:11:58;;;;;;;4.30;3.93;;;;;;;;;;6223505;23;20179;-80
2024/02/13 06:14:33;;;;;;;4.83;4.43;;;;;;;;;;6249067;23;20176;-80
2024/02/13 06:17:08;;;;;;;4.53;4.07;;;;;;;;;;6249188;23;20211;-80
2024/02/13 06:19:37;;;;;;;5.00;4.60;;;;;;;;;;6249255;23;20236;-80
2024/02/13 06:22:10;;;;;;;4.60;4.20;;;;;;;;;;6223278;23;20154;-80
2024/02/13 06:24:41;;;;;;;4.73;4.33;;;;;;;;;;6221809;23;20173;-80
2024/02/13 06:27:34;;;;;;;4.77;4.27;;;;;;;;;;6249699;23;20172;-80
2024/02/13 06:30:03;;;;;;;5.20;4.70;;;;;;;;;;6248959;23;20612;-80
2024/02/13 06:32:30;;;;;;;4.70;4.30;;;;;;;;;;6222718;23;20235;-80
2024/02/13 06:34:59;;;;;;;4.53;4.13;;;;;;;;;;6222756;23;20620;-80
2024/02/13 06:37:29;;;;;;;4.60;4.20;;;;;;;;;;6223371;23;20169;-80
2024/02/13 06:39:56;;;;;;;4.57;4.17;;;;;;;;;;6223310;23;20168;-80
2024/02/13 06:42:23;;;;;;;4.53;4.20;;;;;;;;;;6249402;23;20616;-80
2024/02/13 06:44:53;;;;;;;5.07;4.67;;;;;;;;;;6249518;23;20165;-80
2024/02/13 06:47:25;;;;;;;4.53;4.23;;;;;;;;;;6224120;23;20173;-80
2024/02/13 06:50:00;;;;;;;4.90;4.40;;;;;;;;;;6197805;23;20173;-80
2024/02/13 06:52:29;;;;;;;4.40;4.00;;;;;;;;;;6249116;23;20594;-79
2024/02/13 06:54:56;;;;;;;4.70;4.30;;;;;;;;;;6249548;23;20161;-80
2024/02/13 06:57:25;;;;;;;4.33;4.03;;;;;;;;;;6250195;23;20161;-80
2024/02/13 06:59:55;;;;;;;4.03;3.63;;;;;;;;;;6223834;23;20160;-80
2024/02/13 07:02:27;;;;;;;4.03;3.73;;;;;;;;;;6250105;22;20190;-81
2024/02/13 07:04:55;;;;;;;4.10;3.67;;;;;;;;;;6249999;23;20189;-80
2024/02/13 07:07:24;;;;;;;4.80;3.53;;;;;;;;;;6198149;23;20169;-80
2024/02/13 07:10:14;;;;;;;3.83;3.47;;;;;;;;;;6227269;23;20580;-80
2024/02/13 07:12:52;;;;;;;3.07;2.70;;;;;;;;;;6222929;23;20176;-80
2024/02/13 07:15:21;;;;;;;2.67;2.40;;;;;;;;;;6251678;23;20164;-81
2024/02/13 07:17:49;;;;;;;2.50;2.30;;;;;;;;;;6252442;23;20157;-80
2024/02/13 07:20:26;;;;;;;2.80;2.60;;;;;;;;;;6255037;23;20172;-81
2024/02/13 07:22:56;;;;;;;3.00;2.80;;;;;;;;;;6228245;23;20165;-81
2024/02/13 07:25:25;;;;;;;3.40;3.10;;;;;;;;;;6201609;23;20177;-81
2024/02/13 07:28:11;;;;;;;4.03;3.20;;;;;;;;;;6227856;23;20227;-81
2024/02/13 07:30:41;;;;;;;3.87;3.43;;;;;;;;;;6200636;23;20171;-80
2024/02/13 07:33:13;;;;;;;4.37;3.80;;;;;;;;;;6251474;23;20157;-80
2024/02/13 07:35:41;;;;;;;4.07;3.73;;;;;;;;;;6200834;23;20165;-80
2024/02/13 07:38:10;;;;;;;4.27;3.87;;;;;;;;;;6251715;23;20211;-80
2024/02/13 07:40:40;;;;;;;4.03;3.30;;;;;;;;;;6201801;23;20655;-80
2024/02/13 07:43:08;;;;;;;4.07;3.67;;;;;;;;;;6256028;23;20189;-80
2024/02/13 07:45:38;;;;;;;3.57;3.27;;;;;;;;;;6229095;23;20165;-80
2024/02/13 07:48:06;;;;;;;3.80;3.40;;;;;;;;;;6203583;23;20165;-80
2024/02/13 07:50:35;;;;;;;3.80;3.40;;;;;;;;;;6254912;23;20169;-80
2024/02/13 07:53:10;;;;;;;5.60;3.70;;;;;;;;;;6255239;23;20145;-80
2024/02/13 07:55:40;;;;;;;4.63;3.50;;;;;;;;;;6255885;23;20175;-81
2024/02/13 07:58:07;;;;;;;3.90;3.50;;;;;;;;;;6255601;23;20240;-79
2024/02/13 08:00:36;;;;;;;4.70;4.20;;;;;;;;;;6254030;23;20189;-80
2024/02/13 08:03:03;;;;;;;4.80;4.30;;;;;;;;;;6198390;23;20204;-80
2024/02/13 08:05:34;;;;;;;4.77;4.33;;;;;;;;;;6223726;23;20166;-80
2024/02/13 08:08:08;;;;;;;5.13;4.50;;;;;;;;;;6197623;23;20176;-80
2024/02/13 08:10:42;;;;;;;4.93;4.23;;;;;;;;;;6198692;23;20566;-80
2024/02/13 08:13:12;;;;;;;5.23;4.70;;;;;;;;;;6221778;23;20138;-80
2024/02/13 08:15:39;;;;;;;6.73;6.03;;;;;;;;;;6222034;23;20253;-79
2024/02/13 08:18:09;;;;;;;4.97;4.40;;;;;;;;;;6219563;23;20162;-80
2024/02/13 08:20:39;;;;;;;5.30;4.67;;;;;;;;;;6251534;23;20200;-81
2024/02/13 08:23:09;;;;;;;4.67;4.20;;;;;;;;;;6251649;23;20168;-80
2024/02/13 08:25:37;;;;;;;6.33;4.53;;;;;;;;;;6197880;23;20481;-80
2024/02/13 08:28:05;;;;;;;4.57;4.17;;;;;;;;;;6224598;23;20244;-79
2024/02/13 08:30:32;;;;;;;4.93;4.50;;;;;;;;;;6249822;23;20207;-80
2024/02/13 08:33:01;;;;;;;4.40;4.00;;;;;;;;;;6249044;23;20217;-80
2024/02/13 08:35:28;;;;;;;5.33;4.57;;;;;;;;;;6249802;23;20157;-80
2024/02/13 08:38:00;;;;;;;4.57;4.10;;;;;;;;;;6249590;23;20164;-80
2024/02/13 08:40:27;;;;;;;4.50;4.10;;;;;;;;;;6223505;23;20153;-80
2024/02/13 08:42:59;;;;;;;4.60;4.20;;;;;;;;;;6249587;23;20157;-80
2024/02/13 08:45:33;;;;;;;4.50;3.97;;;;;;;;;;6225393;23;20641;-80
2024/02/13 08:48:00;;;;;;;4.47;4.00;;;;;;;;;;6249856;23;20179;-81
2024/02/13 08:50:32;;;;;;;4.63;4.10;;;;;;;;;;6238127;23;20165;-80
2024/02/13 08:52:59;;;;;;;4.67;4.17;;;;;;;;;;6249713;23;20217;-80
2024/02/13 08:55:29;;;;;;;4.13;3.83;;;;;;;;;;6222346;23;20203;-81
2024/02/13 08:57:57;;;;;;;4.70;4.20;;;;;;;;;;6248890;23;20186;-80
2024/02/13 09:00:28;;;;;;;4.30;3.90;;;;;;;;;;6222602;23;20183;-80
2024/02/13 09:02:57;;;;;;;5.37;3.93;;;;;;;;;;6222826;23;20212;-80
2024/02/13 09:05:24;;;;;;;4.00;3.53;;;;;;;;;;6248996;23;20169;-81
2024/02/13 09:08:42;;;;;;;4.13;3.80;;;;;;;;;;6248813;23;20160;-80
2024/02/13 09:11:12;;;;;;;4.90;3.40;;;;;;;;;;6223057;23;20149;-79
2024/02/13 09:13:40;;;;;;;3.90;3.20;;;;;;;;;;6221810;23;20192;-80
2024/02/13 09:16:10;;;;;;;4.63;3.50;;;;;;;;;;6249638;23;20187;-80
2024/02/13 09:18:45;;;;;;;5.03;3.37;;;;;;;;;;6249083;23;20193;-80
2024/02/13 09:21:15;;;;;;;4.07;3.47;;;;;;;;;;6249743;23;20227;-80
2024/02/13 09:23:43;;;;;;;4.37;3.83;;;;;;;;;;6196254;23;20248;-80
2024/02/13 09:26:10;;;;;;;4.37;3.93;;;;;;;;;;6247829;23;20168;-80
2024/02/13 09:28:37;;;;;;;5.30;3.30;;;;;;;;;;6249682;23;20209;-80
2024/02/13 09:31:10;;;;;;;3.33;3.03;;;;;;;;;;6248223;23;20247;-80
2024/02/13 09:33:39;;;;;;;4.40;2.97;;;;;;;;;;6247841;23;20228;-80
2024/02/13 09:36:13;;;;;;;4.10;3.10;;;;;;;;;;6247354;23;20181;-80
2024/02/13 09:38:44;;;;;;;2.70;2.50;;;;;;;;;;6247798;23;20149;-80
2024/02/13 09:41:14;;;;;;;3.20;2.90;;;;;;;;;;6222700;23;20272;-80
2024/02/13 09:43:46;;;;;;;3.17;2.77;;;;;;;;;;6222342;23;20187;-80
2024/02/13 09:46:16;;;;;;;3.60;2.73;;;;;;;;;;6247911;23;20153;-80
2024/02/13 09:48:47;;;;;;;3.83;2.60;;;;;;;;;;6246555;23;20189;-80
2024/02/13 09:51:18;;;;;;;5.13;2.57;;;;;;;;;;6195192;23;20203;-80
2024/02/13 09:53:47;;;;;;;4.10;2.20;;;;;;;;;;6247059;23;20173;-80
2024/02/13 09:56:16;;;;;;;2.53;2.23;;;;;;;;;;6219644;23;20165;-80
2024/02/13 09:58:54;;;;;;;4.20;2.30;;;;;;;;;;6222713;23;20148;-80
2024/02/13 10:01:21;;;;;;;2.37;2.00;;;;;;;;;;6246472;23;20199;-80
2024/02/13 10:03:49;;;;;;;3.13;2.30;;;;;;;;;;6246669;23;20157;-80
2024/02/13 10:06:16;;;;;;;3.90;2.57;;;;;;;;;;6247001;23;20165;-80
2024/02/13 10:08:52;;;;;;;3.13;2.70;;;;;;;;;;6247108;23;20177;-80
2024/02/13 10:11:30;;;;;;;3.53;2.50;;;;;;;;;;6220890;23;20176;-81
2024/02/13 10:13:57;;;;;;;2.63;2.40;;;;;;;;;;6248483;23;20156;-80
2024/02/13 10:16:26;;;;;;;3.10;2.30;;;;;;;;;;6222660;23;20165;-80
2024/02/13 10:19:02;;;;;;;3.53;2.70;;;;;;;;;;6248556;23;20165;-80
2024/02/13 10:21:30;;;;;;;2.70;2.50;;;;;;;;;;6222160;23;20185;-80
2024/02/13 10:24:06;;;;;;;2.77;2.27;;;;;;;;;;6249040;23;20621;-80
2024/02/13 10:26:37;;;;;;;3.57;2.63;;;;;;;;;;6222896;23;20152;-80
2024/02/13 10:29:11;;;;;;;2.47;2.27;;;;;;;;;;6248822;23;20158;-80
2024/02/13 10:31:47;;;;;;;3.20;2.50;;;;;;;;;;6222107;23;20153;-80
2024/02/13 10:34:24;;;;;;;;;;;;;;;;;;;;;
2024/02/13 10:36:50;;;;;;;2.63;2.10;;;;;;;;;;6248413;23;20168;-80
2024/02/13 10:39:21;;;;;;;3.30;2.13;;;;;;;;;;6221769;23;20211;-80
2024/02/13 10:41:49;;;;;;;2.73;2.13;;;;;;;;;;6247528;23;20185;-80
2024/02/13 10:44:22;;;;;;;2.53;2.00;;;;;;;;;;6248343;23;20175;-78
2024/02/13 10:46:53;;;;;;;2.10;1.90;;;;;;;;;;6221096;23;20158;-80
2024/02/13 10:49:29;;;;;;;3.53;2.10;;;;;;;;;;6248380;23;20152;-80
2024/02/13 10:51:59;;;;;;;4.13;2.50;;;;;;;;;;6248134;23;20156;-80
2024/02/13 10:54:25;;;;;;;6.77;2.70;;;;;;;;;;6247487;23;20196;-79
2024/02/13 10:56:52;;;;;;;1.73;1.43;;;;;;;;;;6247375;23;20234;-78
2024/02/13 10:59:22;;;;;;;3.80;2.03;;;;;;;;;;6247669;23;20168;-80
2024/02/13 11:01:54;;;;;;;2.43;1.90;;;;;;;;;;6220878;23;20206;-81
2024/02/13 11:04:25;;;;;;;2.60;1.53;;;;;;;;;;6222484;23;20203;-81
2024/02/13 11:06:55;;;;;;;3.07;1.60;;;;;;;;;;6221869;23;20175;-81
2024/02/13 11:09:30;;;;;;;5.27;2.00;;;;;;;;;;6249014;23;20152;-80
2024/02/13 11:11:58;;;;;;;4.73;2.00;;;;;;;;;;6220964;23;20193;-79
2024/02/13 11:14:25;;;;;;;3.17;2.00;;;;;;;;;;6248301;23;20161;-80
2024/02/13 11:17:11;;;;;;;5.00;2.00;;;;;;;;;;6247904;23;20240;-79
2024/02/13 11:19:38;;;;;;;4.37;1.83;;;;;;;;;;6195833;23;20161;-79
2024/02/13 11:22:12;;;;;;;2.97;1.70;;;;;;;;;;6247397;23;20169;-79
2024/02/13 11:24:53;;;;;;;2.23;1.80;;;;;;;;;;6220829;23;20196;-80
2024/02/13 11:27:25;;;;;;;2.17;1.67;;;;;;;;;;6248139;23;20149;-79
2024/02/13 11:29:59;;;;;;;2.33;2.00;;;;;;;;;;6247325;23;20187;-79
2024/02/13 11:32:37;;;;;;;2.10;1.90;;;;;;;;;;6248203;23;20156;-79
2024/02/13 11:35:15;;;;;;;4.80;1.97;;;;;;;;;;6248300;23;20179;-78
2024/02/13 11:37:43;;;;;;;3.10;1.80;;;;;;;;;;6220729;23;20145;-78
2024/02/13 11:40:15;;;;;;;2.83;2.20;;;;;;;;;;6247389;23;20244;-78
2024/02/13 11:42:42;;;;;;;2.10;1.87;;;;;;;;;;6220834;23;20177;-79
2024/02/13 11:45:18;;;;;;;2.33;1.60;;;;;;;;;;6220983;23;20165;-79
2024/02/13 11:47:49;;;;;;;2.53;1.70;;;;;;;;;;6247081;23;20164;-79
2024/02/13 11:50:18;;;;;;;1.47;1.30;;;;;;;;;;6220361;23;20185;-79
2024/02/13 11:52:50;;;;;;;2.30;1.40;;;;;;;;;;6247526;23;20161;-79
2024/02/13 11:55:20;;;;;;;2.47;1.20;;;;;;;;;;6247250;23;20148;-78
2024/02/13 11:57:47;;;;;;;2.83;1.60;;;;;;;;;;6221022;23;20162;-79
2024/02/13 12:00:18;;;;;;;2.13;1.20;;;;;;;;;;6220952;23;20172;-79
2024/02/13 12:02:49;;;;;;;1.83;0.97;;;;;;;;;;6220692;23;20200;-79
2024/02/13 12:05:26;;;;;;;5.77;1.43;;;;;;;;;;6166542;23;20165;-79
2024/02/13 12:07:54;;;;;;;3.33;1.40;;;;;;;;;;6216817;23;20181;-79
2024/02/13 12:10:24;;;;;;;2.00;1.17;;;;;;;;;;6189536;23;20165;-79
2024/02/13 12:12:53;;;;;;;3.13;1.57;;;;;;;;;;6216707;23;20484;-79
2024/02/13 12:15:22;;;;;;;2.60;1.20;;;;;;;;;;6215796;23;20166;-79
2024/02/13 12:17:59;;;;;;;4.87;1.30;;;;;;;;;;6216600;23;20225;-78
2024/02/13 12:20:52;;;;;;;2.00;1.07;;;;;;;;;;6215563;23;20166;-79
2024/02/13 12:23:20;;;;;;;1.40;1.10;;;;;;;;;;6188993;23;20190;-78
2024/02/13 12:26:11;;;;;;;2.27;1.30;;;;;;;;;;6194840;23;20149;-80
2024/02/13 12:28:42;;;;;;;1.27;0.80;;;;;;;;;;6215389;23;20688;-81
2024/02/13 12:31:12;;;;;;;1.73;1.00;;;;;;;;;;6189171;23;20850;-78
2024/02/13 12:33:40;;;;;;;1.30;1.10;;;;;;;;;;6215596;23;20585;-78
2024/02/13 12:36:18;;;;;;;1.83;1.07;;;;;;;;;;6189168;23;20165;-80
2024/02/13 12:38:46;;;;;;;2.43;1.10;;;;;;;;;;6216811;23;20173;-80
2024/02/13 12:41:13;;;;;;;4.03;1.17;;;;;;;;;;6189846;23;20158;-79
2024/02/13 12:43:47;;;;;;;4.20;1.60;;;;;;;;;;6216904;23;20161;-80
2024/02/13 12:46:17;;;;;;;2.40;1.03;;;;;;;;;;6216156;23;20238;-80
2024/02/13 12:48:43;;;;;;;5.37;1.50;;;;;;;;;;6165855;23;20170;-80
2024/02/13 12:51:12;;;;;;;2.93;1.20;;;;;;;;;;6216064;23;20162;-80
2024/02/13 12:53:42;;;;;;;7.27;1.83;;;;;;;;;;6216329;23;20168;-80
2024/02/13 12:56:15;;;;;;;3.60;1.57;;;;;;;;;;6216301;23;20172;-80
2024/02/13 12:58:43;;;;;;;4.73;1.30;;;;;;;;;;6189870;23;20165;-80
2024/02/13 13:01:10;;;;;;;3.83;1.33;;;;;;;;;;6171470;23;20651;-80
2024/02/13 13:03:38;;;;;;;4.40;1.37;;;;;;;;;;6219233;23;20185;-80
2024/02/13 13:06:09;;;;;;;3.57;1.57;;;;;;;;;;6247249;23;20153;-80
2024/02/13 13:08:40;;;;;;;2.17;1.23;;;;;;;;;;6219588;23;20173;-80
2024/02/13 13:11:09;;;;;;;3.07;1.20;;;;;;;;;;6219752;23;20168;-79
2024/02/13 13:13:38;;;;;;;4.60;1.47;;;;;;;;;;6219593;23;20165;-80
2024/02/13 13:16:07;;;;;;;1.50;1.03;;;;;;;;;;6219746;23;20228;-79
2024/02/13 13:18:39;;;;;;;7.70;1.70;;;;;;;;;;6220744;23;20168;-80
2024/02/13 13:21:07;;;;;;;1.87;1.20;;;;;;;;;;6246852;23;20218;-80
2024/02/13 13:23:35;;;;;;;3.40;1.10;;;;;;;;;;6194095;23;20196;-79
2024/02/13 13:26:01;;;;;;;3.43;1.30;;;;;;;;;;6219547;23;20173;-80
2024/02/13 13:28:32;;;;;;;1.20;0.97;;;;;;;;;;6247480;23;20207;-80
2024/02/13 13:31:00;;;;;;;4.40;1.03;;;;;;;;;;6220031;23;20169;-78
2024/02/13 13:33:31;;;;;;;4.47;1.10;;;;;;;;;;6246673;23;20157;-78
2024/02/13 13:36:00;;;;;;;1.33;1.00;;;;;;;;;;6219945;23;20153;-80
2024/02/13 13:38:36;;;;;;;6.00;1.03;;;;;;;;;;6221884;23;20221;-78
2024/02/13 13:41:03;;;;;;;4.60;0.97;;;;;;;;;;6246464;23;20150;-79
2024/02/13 13:43:31;;;;;;;4.33;1.43;;;;;;;;;;6246402;23;20251;-80
2024/02/13 13:45:58;;;;;;;2.60;1.27;;;;;;;;;;6221094;23;20188;-79
2024/02/13 13:48:31;;;;;;;1.80;0.90;;;;;;;;;;6249000;23;20169;-80
2024/02/13 13:51:01;;;;;;;5.00;1.10;;;;;;;;;;6222610;23;20219;-80
2024/02/13 13:53:28;;;;;;;3.60;1.20;;;;;;;;;;6222610;23;20203;-79
2024/02/13 13:55:55;;;;;;;1.90;1.00;;;;;;;;;;6222783;23;20506;-80
2024/02/13 13:58:23;;;;;;;3.70;1.10;;;;;;;;;;6248640;23;20162;-80
2024/02/13 14:00:50;;;;;;;1.70;1.00;;;;;;;;;;6248260;22;20181;-80
2024/02/13 14:03:19;;;;;;;4.40;1.00;;;;;;;;;;6249229;23;20174;-80
2024/02/13 14:05:49;;;;;;;4.50;1.20;;;;;;;;;;6248951;23;20160;-80
2024/02/13 14:08:16;;;;;;;1.00;0.90;;;;;;;;;;6221893;23;20178;-80
2024/02/13 14:10:45;;;;;;;4.20;1.13;;;;;;;;;;6246737;23;20176;-80
2024/02/13 14:13:12;;;;;;;2.90;0.80;;;;;;;;;;6221352;23;20168;-80
2024/02/13 14:15:39;;;;;;;4.63;0.97;;;;;;;;;;6248282;23;20165;-80
2024/02/13 14:18:11;;;;;;;2.73;0.97;;;;;;;;;;6248244;23;20160;-80
2024/02/13 14:20:40;;;;;;;22.80;2.10;;;;;;;;;;6248519;23;20153;-80
2024/02/13 14:23:09;;;;;;;10.70;5.17;;;;;;;;;;6247976;23;20185;-80
2024/02/13 14:25:37;;;;;;;3.10;2.17;;;;;;;;;;6247961;23;20195;-80
2024/02/13 14:28:13;;;;;;;1.50;1.30;;;;;;;;;;6248114;23;20187;-80
2024/02/13 14:30:43;;;;;;;1.10;0.90;;;;;;;;;;6221274;23;20195;-80
2024/02/13 14:33:11;;;;;;;1.47;1.37;;;;;;;;;;6196587;23;20588;-80
2024/02/13 14:35:42;;;;;;;1.90;1.00;;;;;;;;;;6222771;23;20152;-80
2024/02/13 14:38:11;;;;;;;1.53;1.03;;;;;;;;;;6248101;23;20184;-81
2024/02/13 14:40:39;;;;;;;1.63;1.53;;;;;;;;;;6247349;23;20172;-80
2024/02/13 14:43:15;;;;;;;1.50;1.40;;;;;;;;;;6247617;23;20194;-77
2024/02/13 14:45:45;;;;;;;2.00;1.20;;;;;;;;;;6247757;23;20145;-79
2024/02/13 14:48:12;;;;;;;1.10;1.00;;;;;;;;;;6247324;23;20161;-80
2024/02/13 14:50:41;;;;;;;1.37;1.03;;;;;;;;;;6247210;23;20218;-80
2024/02/13 14:53:11;;;;;;;1.37;1.20;;;;;;;;;;6220965;23;20226;-80
2024/02/13 14:55:38;;;;;;;1.40;0.90;;;;;;;;;;6247859;23;20161;-80
2024/02/13 14:58:06;;;;;;;0.90;0.80;;;;;;;;;;6247396;23;20322;-80
2024/02/13 15:00:52;;;;;;;1.73;1.07;;;;;;;;;;6247122;22;20619;-80
2024/02/13 15:03:23;;;;;;;1.07;0.87;;;;;;;;;;6246553;23;20189;-80
2024/02/13 15:05:51;;;;;;;1.37;0.90;;;;;;;;;;6219985;23;20626;-80